createdAt,value
2019-02-11T00:01:26.106Z,100054.58
2019-02-11T00:03:59.644Z,100063.63
2019-02-11T00:06:28.060Z,100075.95
2019-02-11T00:08:58.005Z,100075.48
2019-02-11T00:11:28.000Z,100077.72
2019-02-11T00:13:58.135Z,100086.39
2019-02-11T00:16:27.988Z,100098.47
2019-02-11T00:18:58.418Z,100098.47
2019-02-11T00:21:28.188Z,100105.55
2019-02-11T00:23:59.109Z,100105.91
2019-02-11T00:26:29.226Z,100122.43
2019-02-11T00:28:59.125Z,100119.62
2019-02-11T00:31:49.581Z,100128.49
2019-02-11T00:34:19.650Z,100136.43
2019-02-11T00:36:49.441Z,100138.48
2019-02-11T00:39:19.228Z,100148.83
2019-02-11T00:41:49.811Z,100157.14
2019-02-11T00:44:19.782Z,100162.37
2019-02-11T00:46:49.781Z,100171.05
2019-02-11T00:49:19.793Z,100183.37
2019-02-11T00:51:49.741Z,100185.25
2019-02-11T00:54:19.714Z,100197.00
2019-02-11T00:56:49.618Z,100202.23
2019-02-11T00:59:20.961Z,100200.92
2019-02-11T01:01:50.934Z,100219.59
2019-02-11T01:04:20.857Z,100223.33
2019-02-11T01:06:52.981Z,100242.73
2019-02-11T01:09:22.861Z,100230.61
2019-02-11T01:11:52.675Z,100240.59
2019-02-11T01:14:22.508Z,100257.39
2019-02-11T01:16:52.288Z,100258.27
2019-02-11T01:19:22.228Z,100260.52
2019-02-11T01:21:52.116Z,100266.95
2019-02-11T01:24:22.047Z,100272.17
2019-02-11T01:26:51.951Z,100273.58
2019-02-11T01:29:21.814Z,100287.20
2019-02-11T01:31:51.979Z,100280.30
2019-02-11T01:34:21.995Z,100284.22
2019-02-11T01:36:51.934Z,100294.20
2019-02-11T01:39:21.796Z,100304.74
2019-02-11T01:41:51.716Z,100306.42
2019-02-11T01:44:21.571Z,100309.13
2019-02-11T01:46:51.338Z,100303.16
2019-02-11T01:49:21.114Z,100311.83
2019-02-11T01:51:50.951Z,100308.37
2019-02-11T01:54:20.734Z,100313.52
2019-02-11T01:56:50.505Z,100328.63
2019-02-11T01:59:20.608Z,100331.90
2019-02-11T02:01:50.371Z,100340.02
2019-02-11T02:04:20.286Z,100349.32
2019-02-11T02:06:50.059Z,100352.90
2019-02-11T02:09:19.901Z,100354.95
2019-02-11T02:11:49.672Z,100347.39
2019-02-11T02:14:19.512Z,100357.00
2019-02-11T02:16:49.290Z,100354.39
2019-02-11T02:19:19.059Z,100365.68
2019-02-11T02:21:49.295Z,100368.92
2019-02-11T02:24:19.067Z,100380.68
2019-02-11T02:26:49.264Z,100373.80
2019-02-11T02:29:19.098Z,100384.25
2019-02-11T02:31:49.297Z,100391.25
2019-02-11T02:34:19.137Z,100387.05
2019-02-11T02:36:49.003Z,100394.70
2019-02-11T02:39:18.846Z,100397.32
2019-02-11T02:41:48.689Z,100396.73
2019-02-11T02:44:18.734Z,100403.17
2019-02-11T02:46:48.859Z,100403.08
2019-02-11T02:49:19.056Z,100412.23
2019-02-11T02:51:49.217Z,100408.77
2019-02-11T02:54:19.149Z,100408.40
2019-02-11T02:56:48.986Z,100416.98
2019-02-11T02:59:19.374Z,100420.07
2019-02-11T03:01:49.156Z,100427.07
2019-02-11T03:04:19.255Z,100429.22
2019-02-11T03:06:49.181Z,100436.78
2019-02-11T03:09:18.949Z,100436.31
2019-02-11T03:11:48.727Z,100446.22
2019-02-11T03:14:18.525Z,100450.14
2019-02-11T03:16:48.385Z,100458.81
2019-02-11T03:19:18.298Z,100470.67
2019-02-11T03:21:48.165Z,100474.59
2019-02-11T03:24:18.311Z,100482.90
2019-02-11T03:26:48.411Z,100464.52
2019-02-11T03:29:18.247Z,100469.19
2019-02-11T03:31:48.417Z,100477.12
2019-02-11T03:34:18.140Z,100490.47
2019-02-11T03:36:47.922Z,100485.23
2019-02-11T03:39:18.008Z,100496.16
2019-02-11T03:41:47.879Z,100495.78
2019-02-11T03:44:18.148Z,100501.86
2019-02-11T03:46:47.932Z,100511.72
2019-02-11T03:49:18.118Z,100522.09
2019-02-11T03:51:48.079Z,100514.07
2019-02-11T03:54:18.016Z,100516.22
2019-02-11T03:56:47.968Z,100524.99
2019-02-11T03:59:17.902Z,100527.05
2019-02-11T04:01:47.832Z,100534.34
2019-02-11T04:04:17.696Z,100546.39
2019-02-11T04:06:47.664Z,100542.94
2019-02-11T04:09:17.596Z,100539.30
2019-02-11T04:11:47.857Z,100550.22
2019-02-11T04:14:24.682Z,100555.23
2019-02-11T04:16:49.470Z,100572.14
2019-02-11T04:19:19.326Z,100565.89
2019-02-11T04:25:00.254Z,100573.66
2019-02-11T04:27:30.214Z,100586.27
2019-02-11T04:30:00.633Z,100599.42
2019-02-11T04:32:30.405Z,100596.81
2019-02-11T04:35:00.362Z,100605.88
2019-02-11T04:37:30.888Z,100597.27
2019-02-11T04:40:00.664Z,100607.56
2019-02-11T04:42:30.424Z,100626.41
2019-02-11T04:45:00.549Z,100632.02
2019-02-11T04:47:30.386Z,100641.27
2019-02-11T04:50:00.446Z,100634.72
2019-02-11T04:52:30.328Z,100645.27
2019-02-11T04:55:01.515Z,100653.11
2019-02-11T04:57:31.363Z,100648.81
2019-02-11T05:00:01.516Z,100662.56
2019-02-11T05:02:31.773Z,100669.09
2019-02-11T05:05:01.846Z,100674.33
2019-02-11T05:07:31.752Z,100675.16
2019-02-11T05:10:01.683Z,100692.71
2019-02-11T05:12:31.539Z,100697.19
2019-02-11T05:15:01.647Z,100693.55
2019-02-11T05:17:31.982Z,100691.78
2019-02-11T05:20:02.100Z,100690.48
2019-02-11T05:22:32.208Z,100698.49
2019-02-11T05:25:02.055Z,100702.79
2019-02-11T05:27:31.854Z,100705.88
2019-02-11T05:30:02.263Z,100695.41
2019-02-11T05:32:33.537Z,100705.88
2019-02-11T05:35:03.401Z,100708.57
2019-02-11T05:37:33.188Z,100709.88
2019-02-11T05:40:03.056Z,100711.27
2019-02-11T05:42:33.232Z,100715.66
2019-02-11T05:45:03.423Z,100707.52
2019-02-11T05:47:33.205Z,100721.89
2019-02-11T05:50:03.476Z,100734.12
2019-02-11T05:52:33.235Z,100734.48
2019-02-11T05:55:03.100Z,100734.95
2019-02-11T05:57:32.978Z,100748.57
2019-02-11T06:00:03.006Z,100756.50
2019-02-11T06:02:32.868Z,100756.11
2019-02-11T06:05:02.712Z,100764.50
2019-02-11T06:07:32.564Z,100769.19
2019-02-11T06:10:02.755Z,100775.26
2019-02-11T06:12:32.903Z,100778.17
2019-02-11T06:15:04.722Z,100777.23
2019-02-11T06:17:34.673Z,100796.65
2019-02-11T06:20:04.860Z,100793.95
2019-02-11T06:22:34.700Z,100804.33
2019-02-11T06:25:05.079Z,100801.17
2019-02-11T06:27:34.930Z,100813.86
2019-02-11T06:30:05.480Z,100823.22
2019-02-11T06:32:35.419Z,100834.06
2019-02-11T06:35:06.205Z,100836.67
2019-02-11T06:37:36.047Z,100837.52
2019-02-11T06:40:07.350Z,100849.20
2019-02-11T06:42:37.264Z,100863.59
2019-02-11T06:45:13.218Z,100868.35
2019-02-11T06:47:38.875Z,100878.34
2019-02-11T06:50:09.486Z,100891.20
2019-02-11T06:52:39.270Z,100898.74
2019-02-11T06:55:10.031Z,100916.20
2019-02-11T06:57:39.922Z,100907.97
2019-02-11T07:00:11.583Z,100937.58
2019-02-11T07:02:41.619Z,100929.73
2019-02-11T07:05:11.817Z,100944.11
2019-02-11T07:07:41.833Z,100946.19
2019-02-11T07:10:11.804Z,100954.41
2019-02-11T07:12:41.702Z,100955.17
2019-02-11T07:15:12.192Z,100966.48
2019-02-11T07:17:42.219Z,100966.02
2019-02-11T07:20:12.149Z,100964.33
2019-02-11T07:22:43.090Z,100966.94
2019-02-11T07:25:13.021Z,100980.32
2019-02-11T07:27:42.878Z,100987.52
2019-02-11T07:30:12.900Z,100993.59
2019-02-11T07:32:42.931Z,100998.81
2019-02-11T07:35:12.718Z,101009.50
2019-02-11T07:37:43.265Z,101012.12
2019-02-11T07:40:13.210Z,101011.58
2019-02-11T07:43:08.226Z,101014.66
2019-02-11T07:45:46.619Z,101026.34
2019-02-11T07:48:16.446Z,101045.34
2019-02-11T07:50:46.386Z,101037.88
2019-02-11T07:53:16.500Z,101051.42
2019-02-11T07:55:46.461Z,101040.95
2019-02-11T07:58:16.424Z,101040.95
2019-02-11T08:00:46.289Z,101052.54
2019-02-11T08:03:16.237Z,101049.58
2019-02-11T08:05:46.020Z,101059.84
2019-02-11T08:08:16.838Z,101064.08
2019-02-11T08:10:46.693Z,101075.00
2019-02-11T08:13:16.913Z,101074.23
2019-02-11T08:15:46.745Z,101071.08
2019-02-11T08:18:16.642Z,101072.77
2019-02-11T08:20:47.225Z,101072.00
2019-02-11T08:23:17.157Z,101081.31
2019-02-11T08:25:46.947Z,101083.47
2019-02-11T08:28:19.607Z,101088.58
2019-02-11T08:30:50.293Z,101102.73
2019-02-11T08:33:20.744Z,101110.08
2019-02-11T08:35:50.565Z,101109.16
2019-02-11T08:38:20.417Z,101118.16
2019-02-11T08:40:50.569Z,101134.09
2019-02-11T08:43:20.443Z,101142.55
2019-02-11T08:45:50.237Z,101143.60
2019-02-11T08:48:20.181Z,101149.98
2019-02-11T08:50:50.064Z,101147.30
2019-02-11T08:53:19.941Z,101167.77
2019-02-11T08:55:49.762Z,101155.61
2019-02-11T08:58:19.660Z,101155.14
2019-02-11T09:00:50.297Z,101162.45
2019-02-11T09:03:20.200Z,101164.53
2019-02-11T09:05:50.253Z,101173.54
2019-02-11T09:08:20.187Z,101180.93
2019-02-11T09:10:50.047Z,101181.28
2019-02-11T09:13:20.189Z,101185.90
2019-02-11T09:15:55.301Z,101192.83
2019-02-11T09:18:21.971Z,101181.36
2019-02-11T09:20:51.925Z,101189.05
2019-02-11T09:23:22.177Z,101192.83
2019-02-11T09:25:52.034Z,101198.80
2019-02-11T09:28:22.270Z,101194.72
2019-02-11T09:30:52.657Z,101211.45
2019-02-11T09:33:22.537Z,101217.39
2019-02-11T09:35:52.524Z,101226.36
2019-02-11T09:38:22.583Z,101229.59
2019-02-11T09:40:52.789Z,101234.75
2019-02-11T09:43:22.763Z,101235.22
2019-02-11T09:45:52.990Z,101239.69
2019-02-11T09:48:22.912Z,101250.47
2019-02-11T09:50:53.896Z,101256.55
2019-02-11T09:53:24.236Z,101258.25
2019-02-11T09:55:54.188Z,101260.70
2019-02-11T09:58:24.081Z,101277.55
2019-02-11T10:00:54.035Z,101262.91
2019-02-11T10:03:24.230Z,101272.07
2019-02-11T10:05:54.167Z,101264.41
2019-02-11T10:08:24.044Z,101276.27
2019-02-11T10:10:54.029Z,101283.20
2019-02-11T10:13:24.217Z,101286.12
2019-02-11T10:15:54.531Z,101290.94
2019-02-11T10:18:25.017Z,101313.70
2019-02-11T10:20:54.926Z,101309.06
2019-02-11T10:23:25.989Z,101318.08
2019-02-11T10:25:56.186Z,101313.69
2019-02-11T10:28:26.035Z,101321.74
2019-02-11T10:30:56.233Z,101317.42
2019-02-11T10:33:26.268Z,101330.27
2019-02-11T10:35:56.216Z,101333.89
2019-02-11T10:38:27.627Z,101342.22
2019-02-11T10:40:57.620Z,101330.20
2019-02-11T10:43:27.496Z,101345.22
2019-02-11T10:45:57.421Z,101348.04
2019-02-11T10:48:27.381Z,101343.95
2019-02-11T10:50:57.366Z,101353.89
2019-02-11T10:53:27.340Z,101353.13
2019-02-11T10:55:57.602Z,101359.22
2019-02-11T10:58:27.660Z,101359.91
2019-02-11T11:00:57.502Z,101357.66
2019-02-11T11:03:27.392Z,101358.98
2019-02-11T11:05:57.377Z,101366.88
2019-02-11T11:08:27.324Z,101366.47
2019-02-11T11:10:57.306Z,101361.56
2019-02-11T11:13:27.265Z,101364.63
2019-02-11T11:15:58.296Z,101380.59
2019-02-11T11:18:28.249Z,101374.38
2019-02-11T11:20:58.566Z,101374.76
2019-02-11T11:23:28.490Z,101378.15
2019-02-11T11:25:58.536Z,101378.53
2019-02-11T11:28:28.482Z,101383.31
2019-02-11T11:30:58.448Z,101386.10
2019-02-11T11:33:28.398Z,101394.44
2019-02-11T11:35:58.308Z,101393.42
2019-02-11T11:38:28.550Z,101398.12
2019-02-11T11:40:58.500Z,101392.88
2019-02-11T11:43:28.704Z,101406.08
2019-02-11T11:45:58.679Z,101403.34
2019-02-11T11:48:28.620Z,101414.93
2019-02-11T11:50:58.563Z,101399.13
2019-02-11T11:53:28.511Z,101405.11
2019-02-11T11:56:02.114Z,101409.97
2019-02-11T11:58:30.713Z,101416.61
2019-02-11T12:01:00.701Z,101425.02
2019-02-11T12:03:30.977Z,101428.80
2019-02-11T12:06:00.913Z,101417.77
2019-02-11T12:08:30.959Z,101426.02
2019-02-11T12:11:00.935Z,101437.44
2019-02-11T12:13:30.985Z,101440.05
2019-02-11T12:16:01.528Z,101453.91
2019-02-11T12:18:31.365Z,101453.63
2019-02-11T12:21:01.413Z,101483.95
2019-02-11T12:23:31.303Z,101483.95
2019-02-11T12:26:01.242Z,101474.73
2019-02-11T12:28:31.616Z,101480.20
2019-02-11T12:31:01.679Z,101485.21
2019-02-11T12:33:31.485Z,101494.27
2019-02-11T12:36:01.681Z,101504.36
2019-02-11T12:38:31.718Z,101506.59
2019-02-11T12:41:01.801Z,101507.13
2019-02-11T12:43:32.067Z,101504.89
2019-02-11T12:46:06.242Z,101515.77
2019-02-11T12:48:36.307Z,101521.94
2019-02-11T12:51:06.434Z,101528.03
2019-02-11T12:53:36.958Z,101540.28
2019-02-11T12:56:07.383Z,101537.66
2019-02-11T12:58:37.490Z,101548.54
2019-02-11T13:01:07.924Z,101551.94
2019-02-11T13:03:37.808Z,101556.92
2019-02-11T13:06:07.978Z,101557.40
2019-02-11T13:08:40.079Z,101560.78
2019-02-11T13:11:09.909Z,101567.16
2019-02-11T13:13:42.972Z,101570.02
2019-02-11T13:16:32.569Z,101581.14
2019-02-11T13:19:21.916Z,101582.39
2019-02-11T13:21:51.978Z,101585.00
2019-02-11T13:24:22.349Z,101575.13
2019-02-11T13:26:53.920Z,101578.49
2019-02-11T13:29:23.714Z,101582.20
2019-02-11T13:31:53.709Z,101594.60
2019-02-11T13:34:23.895Z,101599.00
2019-02-11T13:36:54.527Z,101604.70
2019-02-11T13:39:24.478Z,101615.03
2019-02-11T13:41:54.382Z,101637.37
2019-02-11T13:44:24.174Z,101624.62
2019-02-11T13:46:54.095Z,101635.48
2019-02-11T13:49:24.044Z,101630.84
2019-02-11T13:51:55.385Z,101641.45
2019-02-11T13:54:25.971Z,101652.46
2019-02-11T13:56:59.759Z,101647.22
2019-02-11T13:59:29.584Z,101659.27
2019-02-11T14:02:02.065Z,101659.91
2019-02-11T14:04:32.298Z,101662.33
2019-02-11T14:07:02.486Z,101673.09
2019-02-11T14:09:32.550Z,101675.05
2019-02-11T14:12:03.927Z,101679.09
2019-02-11T14:14:34.446Z,101685.20
2019-02-11T14:17:06.566Z,101691.86
2019-02-11T14:19:36.462Z,101693.32
2019-02-11T14:22:06.325Z,101698.74
2019-02-11T14:24:38.618Z,101710.30
2019-02-11T14:27:08.953Z,101720.25
2019-02-11T14:29:39.160Z,101741.55
2019-02-11T14:32:09.255Z,101743.24
2019-02-11T14:34:39.729Z,101730.48
2019-02-11T14:37:10.356Z,101727.78
2019-02-11T14:39:41.607Z,101744.03
2019-02-11T14:42:14.595Z,101742.66
2019-02-11T14:44:43.493Z,101746.34
2019-02-11T14:47:13.663Z,101744.76
2019-02-11T14:49:45.239Z,101743.00
2019-02-11T14:52:15.438Z,101746.06
2019-02-11T14:54:45.597Z,101748.16
2019-02-11T14:57:15.556Z,101754.89
2019-02-11T14:59:45.501Z,101759.36
2019-02-11T15:02:15.477Z,101764.06
2019-02-11T15:04:45.984Z,101771.76
2019-02-11T15:07:15.936Z,101771.37
2019-02-11T15:09:45.889Z,101760.48
2019-02-11T15:12:15.857Z,101765.73
2019-02-11T15:14:45.846Z,101770.98
2019-02-11T15:17:15.829Z,101774.91
2019-02-11T15:19:45.921Z,101767.11
2019-02-11T15:22:15.996Z,101773.28
2019-02-11T15:24:46.126Z,101774.83
2019-02-11T15:27:17.480Z,101780.35
2019-02-11T15:29:48.543Z,101789.27
2019-02-11T15:32:21.598Z,101793.53
2019-02-11T15:34:51.911Z,101802.37
2019-02-11T15:37:22.013Z,101807.68
2019-02-11T15:40:12.448Z,101814.30
2019-02-11T15:42:44.021Z,101826.70
2019-02-11T15:45:17.003Z,101826.91
2019-02-11T15:47:51.107Z,101841.62
2019-02-11T15:50:21.159Z,101851.85
2019-02-11T15:52:51.231Z,101854.73
2019-02-11T15:58:10.882Z,101865.39
2019-02-11T16:00:41.164Z,101869.84
2019-02-11T16:03:11.159Z,101874.88
2019-02-11T16:05:49.219Z,101877.17
2019-02-11T16:08:13.379Z,101881.73
2019-02-11T16:10:43.635Z,101894.50
2019-02-11T16:13:13.769Z,101896.73
2019-02-11T16:15:44.940Z,101907.66
2019-02-11T16:18:15.055Z,101913.42
2019-02-11T16:20:45.069Z,101915.20
2019-02-11T16:23:15.281Z,101924.42
2019-02-11T16:25:45.165Z,101936.80
2019-02-11T16:28:15.493Z,101943.41
2019-02-11T16:30:45.704Z,101945.73
2019-02-11T16:33:16.586Z,101953.20
2019-02-11T16:35:48.781Z,101962.42
2019-02-11T16:38:18.793Z,101971.78
2019-02-11T16:40:49.302Z,101982.66
2019-02-11T16:43:20.834Z,101990.91
2019-02-11T16:45:51.561Z,101990.05
2019-02-11T16:48:21.802Z,101992.67
2019-02-11T16:50:51.902Z,102013.69
2019-02-11T16:53:23.054Z,102023.37
2019-02-11T16:55:53.143Z,102029.02
2019-02-11T16:58:25.283Z,102034.25
2019-02-11T17:00:55.616Z,102041.83
2019-02-11T17:03:26.552Z,102047.47
2019-02-11T17:05:56.423Z,102054.93
2019-02-11T17:08:26.731Z,102068.82
2019-02-11T17:10:56.899Z,102074.17
2019-02-11T17:13:27.235Z,102081.98
2019-02-11T17:15:57.215Z,102091.20
2019-02-11T17:18:27.637Z,102093.70
2019-02-11T17:20:58.443Z,102101.11
2019-02-11T17:23:28.988Z,102097.64
2019-02-11T17:25:58.996Z,102103.27
2019-02-11T17:28:29.068Z,102116.94
2019-02-11T17:30:59.714Z,102127.48
2019-02-11T17:33:29.623Z,102129.27
2019-02-11T17:35:59.714Z,102138.90
2019-02-11T17:38:29.699Z,102143.28
2019-02-11T17:40:59.619Z,102148.13
2019-02-11T17:43:29.476Z,102153.81
2019-02-11T17:45:59.557Z,102149.48
2019-02-11T17:48:29.558Z,102156.03
2019-02-11T17:50:59.619Z,102165.66
2019-02-11T17:53:30.824Z,102168.33
2019-02-11T17:56:01.476Z,102162.75
2019-02-11T18:01:22.261Z,102168.15
2019-02-11T18:06:43.936Z,102178.22
2019-02-11T18:09:14.035Z,102184.77
2019-02-11T18:11:43.989Z,102196.55
2019-02-11T18:14:13.791Z,102200.48
2019-02-11T18:16:43.986Z,102203.05
2019-02-11T18:19:14.031Z,102209.55
2019-02-11T18:21:44.147Z,102213.77
2019-02-11T18:24:14.178Z,102214.56
2019-02-11T18:26:44.303Z,102218.50
2019-02-11T18:29:14.991Z,102218.90
2019-02-11T18:31:45.390Z,102221.47
2019-02-11T18:34:15.422Z,102222.78
2019-02-11T18:36:45.714Z,102228.98
2019-02-11T18:39:15.647Z,102223.79
2019-02-11T18:41:45.735Z,102227.42
2019-02-11T18:44:16.300Z,102234.53
2019-02-11T18:46:46.576Z,102239.95
2019-02-11T18:49:17.152Z,102248.77
2019-02-11T18:51:47.203Z,102247.53
2019-02-11T18:54:17.377Z,102258.52
2019-02-11T18:56:49.305Z,102264.26
2019-02-11T18:59:24.569Z,102271.30
2019-02-11T19:01:51.462Z,102281.11
2019-02-11T19:04:22.931Z,102289.11
2019-02-11T19:06:53.125Z,102283.02
2019-02-11T19:09:23.174Z,102290.02
2019-02-11T19:11:53.155Z,102297.56
2019-02-11T19:14:23.811Z,102306.41
2019-02-11T19:16:53.950Z,102321.30
2019-02-11T19:19:24.118Z,102319.09
2019-02-11T19:21:54.125Z,102316.06
2019-02-11T19:24:24.090Z,102315.25
2019-02-11T19:26:54.100Z,102294.81
2019-02-11T19:29:24.296Z,102297.89
2019-02-11T19:31:54.129Z,102295.41
2019-02-11T19:34:23.940Z,102281.06
2019-02-11T19:36:53.823Z,102275.52
2019-02-11T19:39:23.988Z,102279.12
2019-02-11T19:41:54.111Z,102273.54
2019-02-11T19:44:24.056Z,102276.80
2019-02-11T19:46:54.090Z,102287.94
2019-02-11T19:49:24.225Z,102297.33
2019-02-11T19:51:54.483Z,102314.99
2019-02-11T19:54:24.548Z,102315.58
2019-02-11T19:56:56.031Z,102324.38
2019-02-11T19:59:45.188Z,102332.27
2019-02-11T20:02:15.664Z,102349.27
2019-02-11T20:04:45.688Z,102353.09
2019-02-11T20:07:15.994Z,102342.09
2019-02-11T20:09:46.104Z,102340.30
2019-02-11T20:12:16.223Z,102340.34
2019-02-11T20:14:46.263Z,102326.90
2019-02-11T20:17:16.310Z,102336.95
2019-02-11T20:19:46.226Z,102354.85
2019-02-11T20:22:16.470Z,102350.12
2019-02-11T20:24:46.854Z,102361.39
2019-02-11T20:27:17.299Z,102357.47
2019-02-11T20:29:50.567Z,102363.52
2019-02-11T20:32:20.647Z,102368.74
2019-02-11T20:34:52.052Z,102369.16
2019-02-11T20:37:21.914Z,102376.19
2019-02-11T20:39:51.757Z,102385.78
2019-02-11T20:42:21.982Z,102385.83
2019-02-11T20:44:51.735Z,102389.02
2019-02-11T20:47:21.596Z,102399.92
2019-02-11T20:49:51.443Z,102413.90
2019-02-11T20:52:22.185Z,102407.85
2019-02-11T20:54:52.065Z,102416.19
2019-02-11T20:57:22.105Z,102424.52
2019-02-11T20:59:52.322Z,102421.50
2019-02-11T21:02:22.266Z,102424.61
2019-02-11T21:04:52.120Z,102433.34
2019-02-11T21:07:22.593Z,102434.25
2019-02-11T21:09:52.516Z,102436.45
2019-02-11T21:12:22.359Z,102450.83
2019-02-11T21:14:52.218Z,102446.02
2019-02-11T21:17:22.649Z,102444.22
2019-02-11T21:19:52.763Z,102442.87
2019-02-11T21:22:22.862Z,102449.45
2019-02-11T21:24:52.637Z,102444.63
2019-02-11T21:27:23.126Z,102450.71
2019-02-11T21:29:52.977Z,102459.45
2019-02-11T21:32:23.057Z,102463.87
2019-02-11T21:34:52.916Z,102467.34
2019-02-11T21:37:22.833Z,102468.28
2019-02-11T21:39:52.689Z,102470.44
2019-02-11T21:42:22.922Z,102479.22
2019-02-11T21:44:52.801Z,102487.06
2019-02-11T21:47:22.956Z,102484.89
2019-02-11T21:49:53.085Z,102491.47
2019-02-11T21:52:23.188Z,102497.15
2019-02-11T21:54:53.306Z,102498.86
2019-02-11T21:57:23.338Z,102499.31
2019-02-11T21:59:54.151Z,102503.20
2019-02-11T22:02:24.294Z,102499.31
2019-02-11T22:04:54.135Z,102502.45
2019-02-11T22:07:24.315Z,102515.11
2019-02-11T22:09:54.230Z,102521.69
2019-02-11T22:12:24.488Z,102521.69
2019-02-11T22:14:55.337Z,102521.20
2019-02-11T22:17:25.192Z,102522.02
2019-02-11T22:19:54.960Z,102518.10
2019-02-11T22:22:24.828Z,102512.46
2019-02-11T22:24:56.411Z,102516.38
2019-02-11T22:27:26.145Z,102519.86
2019-02-11T22:29:55.913Z,102520.72
2019-02-11T22:32:26.440Z,102535.50
2019-02-11T22:34:56.372Z,102533.75
2019-02-11T22:37:26.236Z,102546.78
2019-02-11T22:39:56.716Z,102544.09
2019-02-11T22:42:28.361Z,102540.66
2019-02-11T22:44:58.219Z,102537.63
2019-02-11T22:47:28.003Z,102531.99
2019-02-11T22:49:57.871Z,102532.85
2019-02-11T22:52:27.647Z,102534.57
2019-02-11T22:54:57.422Z,102530.58
2019-02-11T22:57:27.183Z,102531.40
2019-02-11T22:59:56.959Z,102535.77
2019-02-11T23:02:26.883Z,102531.44
2019-02-11T23:04:56.798Z,102533.71
2019-02-11T23:07:26.634Z,102537.67
2019-02-11T23:09:56.488Z,102545.06
2019-02-11T23:12:26.349Z,102544.17
2019-02-11T23:14:56.273Z,102538.08
2019-02-11T23:17:26.126Z,102547.23
2019-02-11T23:19:56.063Z,102545.92
2019-02-11T23:22:25.877Z,102560.75
2019-02-11T23:24:56.218Z,102560.38
2019-02-11T23:27:26.592Z,102571.28
2019-02-11T23:29:56.711Z,102579.54
2019-02-11T23:32:26.929Z,102586.55
2019-02-11T23:34:57.217Z,102594.44
2019-02-11T23:37:26.975Z,102598.84
2019-02-11T23:39:56.891Z,102603.70
2019-02-11T23:42:27.079Z,102597.16
2019-02-11T23:44:56.850Z,102597.98
2019-02-11T23:47:26.781Z,102584.91
2019-02-11T23:49:56.614Z,102577.52
2019-02-11T23:52:26.760Z,102573.97
2019-02-11T23:54:56.640Z,102585.22
2019-02-11T23:57:28.079Z,102588.61
2019-02-11T23:59:58.174Z,102585.48
